| time (UTC) | temp F | wind direction | speed MPH | gust MPH | rain 1hr in | rain 24hr in | rain mn in | humidity % | barometer mb |
| 20260905230027 | 59 | 305 | 0.0 | 2.0 | 0.00 | 0.00 | 0.00 | 69 | 1019.5 |
| 20260905224533 | 61 | 299 | 0.0 | 2.0 | 0.00 | 0.00 | 0.00 | 66 | 1019.4 |
| 20260905223035 | 63 | 342 | 0.0 | 3.0 | 0.00 | 0.00 | 0.00 | 64 | 1019.5 |
| 20260905221519 | 65 | 306 | 0.0 | 0.0 | 0.00 | 0.00 | 0.00 | 58 | 1019.5 |
| 20260905220028 | 68 | 332 | 2.0 | 4.0 | 0.00 | 0.00 | 0.00 | 54 | 1019.3 |
| 20260905214527 | 69 | 264 | 4.0 | 7.0 | 0.00 | 0.00 | 0.00 | 48 | 1019.1 |
| 20260905213032 | 70 | 267 | 3.0 | 9.0 | 0.00 | 0.00 | 0.00 | 49 | 1019.1 |
| 20260905211534 | 70 | 290 | 4.0 | 9.0 | 0.00 | 0.00 | 0.00 | 49 | 1018.8 |
| 20260905210028 | 70 | 305 | 5.0 | 8.0 | 0.00 | 0.00 | 0.00 | 48 | 1018.7 |
| 20260905204528 | 70 | 269 | 5.0 | 16.0 | 0.00 | 0.00 | 0.00 | 47 | 1018.8 |
| 20260905203031 | 69 | 292 | 6.0 | 9.0 | 0.00 | 0.00 | 0.00 | 48 | 1018.7 |
| 20260905201539 | 69 | 288 | 6.0 | 12.0 | 0.00 | 0.00 | 0.00 | 49 | 1018.7 |
| 20260905200029 | 65 | 319 | 1.0 | 5.0 | 0.00 | 0.00 | 0.00 | 59 | 1018.3 |
| 20260905194507 | 65 | 306 | 1.0 | 3.0 | 0.00 | 0.00 | 0.00 | 54 | 1018.2 |
| 20260905193008 | 68 | 346 | 0.0 | 6.0 | 0.00 | 0.00 | 0.00 | 50 | 1018.1 |
| 20260905191510 | 69 | 265 | 2.0 | 7.0 | 0.00 | 0.00 | 0.00 | 50 | 1018.1 |
| 20260905190018 | 70 | 246 | 2.0 | 13.0 | 0.00 | 0.00 | 0.00 | 49 | 1018.0 |
| 20260905184532 | 69 | 280 | 2.0 | 10.0 | 0.00 | 0.00 | 0.00 | 50 | 1017.8 |
| 20260905183005 | 69 | 264 | 5.0 | 9.0 | 0.00 | 0.00 | 0.00 | 51 | 1017.7 |
| 20260905181512 | 69 | 297 | 4.0 | 8.0 | 0.00 | 0.00 | 0.00 | 52 | 1017.4 |
| 20260905180012 | 70 | 270 | 3.0 | 7.0 | 0.00 | 0.00 | 0.00 | 52 | 1017.2 |
| 20260905174529 | 71 | 273 | 2.0 | 8.0 | 0.00 | 0.00 | 0.00 | 50 | 1017.2 |
| 20260905173026 | 71 | 286 | 5.0 | 9.0 | 0.00 | 0.00 | 0.00 | 49 | 1016.9 |
| 20260905171507 | 72 | 267 | 5.0 | 11.0 | 0.00 | 0.00 | 0.00 | 47 | 1016.7 |
| 20260905170010 | 73 | 281 | 5.0 | 9.0 | 0.00 | 0.00 | 0.00 | 45 | 1016.6 |
| 20260905164516 | 75 | 273 | 1.0 | 7.0 | 0.00 | 0.00 | 0.00 | 42 | 1016.5 |
| 20260905163023 | 75 | 263 | 1.0 | 4.0 | 0.00 | 0.00 | 0.00 | 38 | 1016.6 |
| 20260905161528 | 76 | 300 | 1.0 | 10.0 | 0.00 | 0.00 | 0.00 | 38 | 1016.4 |
| 20260905160021 | 77 | 305 | 3.0 | 8.0 | 0.00 | 0.00 | 0.00 | 37 | 1016.2 |
| 20260905154515 | 77 | 254 | 2.0 | 6.0 | 0.00 | 0.00 | 0.00 | 38 | 1016.2 |
| 20260905153021 | 77 | 244 | 2.0 | 7.0 | 0.00 | 0.00 | 0.00 | 37 | 1016.1 |
| 20260905151529 | 78 | 294 | 4.0 | 8.0 | 0.00 | 0.00 | 0.00 | 36 | 1016.1 |
| 20260905150019 | 78 | 265 | 4.0 | 10.0 | 0.00 | 0.00 | 0.00 | 35 | 1016.2 |
| 20260905144536 | 79 | 321 | 5.0 | 8.0 | 0.00 | 0.00 | 0.00 | 38 | 1016.2 |
| 20260905143024 | 78 | 305 | 4.0 | 9.0 | 0.00 | 0.00 | 0.00 | 40 | 1016.1 |
| 20260905141548 | 78 | 300 | 5.0 | 10.0 | 0.00 | 0.00 | 0.00 | 41 | 1016.1 |
| 20260905140028 | 77 | 275 | 3.0 | 11.0 | 0.00 | 0.00 | 0.00 | 43 | 1016.1 |
| 20260905134516 | 76 | 277 | 5.0 | 12.0 | 0.00 | 0.00 | 0.00 | 44 | 1016.4 |
| 20260905133016 | 76 | 285 | 4.0 | 10.0 | 0.00 | 0.00 | 0.00 | 48 | 1016.4 |
| 20260905131542 | 76 | 31 | 4.0 | 12.0 | 0.00 | 0.00 | 0.00 | 47 | 1016.3 |
| 20260905130028 | 77 | 327 | 3.0 | 6.0 | 0.00 | 0.00 | 0.00 | 47 | 1016.4 |
| 20260905124532 | 74 | 317 | 2.0 | 10.0 | 0.00 | 0.00 | 0.00 | 54 | 1016.7 |
| 20260905123012 | 73 | 281 | 3.0 | 10.0 | 0.00 | 0.00 | 0.00 | 64 | 1016.7 |
| 20260905121520 | 72 | 194 | 1.0 | 7.0 | 0.00 | 0.00 | 0.00 | 71 | 1016.8 |
| 20260905120028 | 71 | 278 | 1.0 | 4.0 | 0.00 | 0.00 | 0.00 | 72 | 1017.0 |
| 20260905114550 | 72 | 263 | 1.0 | 5.0 | 0.00 | 0.00 | 0.00 | 67 | 1016.9 |
| 20260905113031 | 72 | 184 | 1.0 | 3.0 | 0.00 | 0.00 | 0.00 | 64 | 1016.3 |
| 20260905111519 | 72 | 269 | 1.0 | 4.0 | 0.00 | 0.00 | 0.00 | 64 | 1016.8 |
| 20260905110027 | 72 | 166 | 2.0 | 6.0 | 0.00 | 0.00 | 0.00 | 65 | 1016.5 |
| 20260905104506 | 72 | 142 | 1.0 | 6.0 | 0.00 | 0.00 | 0.00 | 64 | 1016.5 |
| 20260905103008 | 72 | 157 | 1.0 | 3.0 | 0.00 | 0.00 | 0.00 | 66 | 1016.9 |
| 20260905101513 | 71 | 134 | 0.0 | 2.0 | 0.00 | 0.00 | 0.00 | 72 | 1017.0 |
| 20260905100007 | 70 | 17 | 1.0 | 2.0 | 0.00 | 0.00 | 0.00 | 75 | 1017.4 |
| 20260905094506 | 70 | 17 | 0.0 | 2.0 | 0.00 | 0.00 | 0.00 | 72 | 1017.8 |
| 20260905093009 | 70 | 360 | 0.0 | 4.0 | 0.00 | 0.00 | 0.00 | 71 | 1017.8 |
| 20260905091508 | 70 | 300 | 3.0 | 6.0 | 0.00 | 0.00 | 0.00 | 69 | 1017.7 |
| 20260905090010 | 70 | 325 | 3.0 | 5.0 | 0.00 | 0.00 | 0.00 | 68 | 1017.0 |
| 20260905084514 | 70 | 360 | 1.0 | 4.0 | 0.00 | 0.00 | 0.00 | 70 | 1016.6 |
| 20260905083010 | 70 | 13 | 3.0 | 9.0 | 0.00 | 0.00 | 0.00 | 65 | 1016.1 |
| 20260905081509 | 71 | 327 | 2.0 | 6.0 | 0.00 | 0.00 | 0.00 | 66 | 1016.3 |
| 20260905080017 | 71 | 27 | 2.0 | 6.0 | 0.00 | 0.00 | 0.00 | 63 | 1015.6 |
| 20260905074516 | 71 | 334 | 3.0 | 7.0 | 0.00 | 0.00 | 0.00 | 62 | 1015.6 |
| 20260905073012 | 72 | 9 | 3.0 | 7.0 | 0.00 | 0.00 | 0.00 | 61 | 1015.0 |
| 20260905071511 | 72 | 26 | 2.0 | 6.0 | 0.00 | 0.00 | 0.00 | 62 | 1014.7 |
| 20260905070012 | 72 | 339 | 3.0 | 7.0 | 0.00 | 0.00 | 0.00 | 58 | 1014.5 |
| 20260905064513 | 72 | 36 | 4.0 | 9.0 | 0.00 | 0.00 | 0.00 | 58 | 1014.4 |
| 20260905063011 | 71 | 352 | 1.0 | 5.0 | 0.00 | 0.00 | 0.00 | 60 | 1013.8 |
| 20260905061514 | 70 | 38 | 4.0 | 10.0 | 0.00 | 0.00 | 0.00 | 60 | 1013.8 |
| 20260905060016 | 70 | 352 | 3.0 | 9.0 | 0.00 | 0.00 | 0.00 | 61 | 1013.6 |
| 20260905054516 | 71 | 38 | 2.0 | 5.0 | 0.00 | 0.00 | 0.00 | 59 | 1013.0 |
| 20260905053015 | 71 | 15 | 1.0 | 5.0 | 0.00 | 0.00 | 0.00 | 59 | 1012.8 |
| 20260905051516 | 70 | 350 | 1.0 | 5.0 | 0.00 | 0.00 | 0.00 | 59 | 1012.7 |
| 20260905050019 | 70 | 138 | 1.0 | 4.0 | 0.00 | 0.00 | 0.00 | 58 | 1012.7 |
| 20260905044521 | 70 | 162 | 1.0 | 5.0 | 0.00 | 0.00 | 0.00 | 59 | 1012.6 |
| 20260905043015 | 69 | 204 | 2.0 | 6.0 | 0.00 | 0.00 | 0.00 | 59 | 1012.7 |
| 20260905041517 | 69 | 236 | 2.0 | 7.0 | 0.00 | 0.00 | 0.00 | 59 | 1012.7 |
| 20260905040022 | 69 | 184 | 3.0 | 8.0 | 0.00 | 0.00 | 0.00 | 60 | 1012.7 |
| 20260905034521 | 67 | 197 | 3.0 | 7.0 | 0.00 | 0.00 | 0.00 | 62 | 1012.4 |
| 20260905033029 | 64 | 171 | 2.0 | 6.0 | 0.00 | 0.00 | 0.00 | 68 | 1012.3 |
| 20260905031524 | 63 | 168 | 1.0 | 2.0 | 0.00 | 0.00 | 0.00 | 68 | 1012.4 |
| 20260905030020 | 64 | 181 | 0.0 | 2.0 | 0.00 | 0.00 | 0.00 | 68 | 1012.3 |
| 20260905024521 | 64 | 175 | 1.0 | 3.0 | 0.00 | 0.00 | 0.00 | 68 | 1012.4 |
| 20260905023038 | 64 | 180 | 1.0 | 2.0 | 0.00 | 0.00 | 0.00 | 68 | 1012.3 |
| 20260905021838 | 64 | 167 | 0.0 | 0.0 | 0.00 | 0.00 | 0.00 | 67 | 1012.5 |
| 20260905020028 | 64 | 179 | 1.0 | 4.0 | 0.00 | 0.00 | 0.00 | 67 | 1012.4 |
| 20260905014510 | 64 | 173 | 1.0 | 2.0 | 0.00 | 0.00 | 0.00 | 67 | 1012.3 |
| 20260905013013 | 63 | 166 | 1.0 | 2.0 | 0.00 | 0.00 | 0.00 | 69 | 1012.3 |
| 20260905011522 | 63 | 194 | 0.0 | 2.0 | 0.00 | 0.00 | 0.00 | 70 | 1012.3 |
| 20260905010004 | 63 | 172 | 0.0 | 3.0 | 0.00 | 0.00 | 0.00 | 70 | 1012.3 |
| 20260905004509 | 63 | 167 | 0.0 | 3.0 | 0.00 | 0.00 | 0.00 | 68 | 1012.5 |
| 20260905003014 | 63 | 135 | 1.0 | 3.0 | 0.00 | 0.00 | 0.00 | 69 | 1012.6 |
| 20260905001520 | 63 | 150 | 1.0 | 3.0 | 0.00 | 0.00 | 0.00 | 69 | 1012.7 |
| 20260905000028 | 63 | 140 | 0.0 | 2.0 | 0.00 | 0.00 | 0.00 | 69 | 1012.9 |
| 20260904234507 | 63 | 162 | 0.0 | 2.0 | 0.00 | 0.00 | 0.00 | 70 | 1013.0 |
| 20260904233009 | 62 | 161 | 0.0 | 2.0 | 0.00 | 0.00 | 0.00 | 71 | 1013.1 |
| 20260904231516 | 63 | 195 | 0.0 | 2.0 | 0.00 | 0.00 | 0.00 | 70 | 1013.2 |